Weather at Trøgstad Airfield

Public forecast

Using degrees Celsius for public forecast. Weather courtesy of forecast.io.

Closest aviation weather report (METAR) to Trøgstad Airfield

Closest report is Moss Airport, Rygge, 24.0 nm (44.5 km) SW.

2024/05/27 21:20 (retrieved 18 minutes ago)

ENRY 272120Z AUTO 16006KT 9999 FEW012/// SCT014/// BKN140/// 15/13 Q1015

Closest aviation forecast (TAF) to Trøgstad Airfield

Closest forecast is Moss Airport, Rygge, 24.0 nm (44.5 km) SW.

2024/05/27 18:38 (retrieved 3 hours ago)

TAF ENRY 271700Z 2718/2818 18008KT 9999 FEW008 BECMG 2718/2720 BKN008 PROB40 2720/2806 FEW008 BECMG 2806/2808 FEW040 TEMPO 2810/2813 SCT025TCU TEMPO 2813/2818 34015G25KT 4000 TSRA BKN018CB